sensor_id;sensor_type;location;lat;lon;timestamp;P1;durP1;ratioP1;P2;durP2;ratioP2
21192;SDS011;10754;51.106;7.164;2022-09-28T00:00:27;2.95;;;1.00;;
21192;SDS011;10754;51.106;7.164;2022-09-28T00:02:53;2.13;;;0.80;;
21192;SDS011;10754;51.106;7.164;2022-09-28T00:05:21;3.55;;;1.00;;
21192;SDS011;10754;51.106;7.164;2022-09-28T00:07:52;4.63;;;1.40;;
21192;SDS011;10754;51.106;7.164;2022-09-28T00:10:18;2.28;;;1.05;;
21192;SDS011;10754;51.106;7.164;2022-09-28T00:12:47;2.80;;;1.00;;
21192;SDS011;10754;51.106;7.164;2022-09-28T00:15:13;1.15;;;0.88;;
21192;SDS011;10754;51.106;7.164;2022-09-28T00:17:39;1.20;;;0.97;;
21192;SDS011;10754;51.106;7.164;2022-09-28T00:20:04;1.88;;;1.00;;
21192;SDS011;10754;51.106;7.164;2022-09-28T00:22:30;2.08;;;1.10;;
21192;SDS011;10754;51.106;7.164;2022-09-28T00:24:56;3.00;;;1.23;;
21192;SDS011;10754;51.106;7.164;2022-09-28T00:27:21;2.53;;;1.10;;
21192;SDS011;10754;51.106;7.164;2022-09-28T00:29:46;1.77;;;1.00;;
21192;SDS011;10754;51.106;7.164;2022-09-28T00:32:12;1.90;;;1.27;;
21192;SDS011;10754;51.106;7.164;2022-09-28T00:34:39;2.30;;;1.00;;
21192;SDS011;10754;51.106;7.164;2022-09-28T00:37:07;2.53;;;0.90;;
21192;SDS011;10754;51.106;7.164;2022-09-28T00:39:33;2.25;;;0.75;;
21192;SDS011;10754;51.106;7.164;2022-09-28T00:42:00;1.40;;;0.95;;
21192;SDS011;10754;51.106;7.164;2022-09-28T00:52:14;1.85;;;0.90;;
21192;SDS011;10754;51.106;7.164;2022-09-28T00:54:46;1.98;;;0.93;;
21192;SDS011;10754;51.106;7.164;2022-09-28T00:57:14;1.43;;;0.80;;
21192;SDS011;10754;51.106;7.164;2022-09-28T00:59:41;1.67;;;0.90;;
21192;SDS011;10754;51.106;7.164;2022-09-28T01:02:07;1.23;;;0.88;;
21192;SDS011;10754;51.106;7.164;2022-09-28T01:04:34;1.67;;;1.20;;
21192;SDS011;10754;51.106;7.164;2022-09-28T01:07:01;2.37;;;1.20;;
21192;SDS011;10754;51.106;7.164;2022-09-28T01:09:26;1.00;;;0.90;;
21192;SDS011;10754;51.106;7.164;2022-09-28T01:11:53;1.35;;;0.98;;
21192;SDS011;10754;51.106;7.164;2022-09-28T01:14:19;1.05;;;0.95;;
21192;SDS011;10754;51.106;7.164;2022-09-28T01:16:57;2.03;;;1.08;;
21192;SDS011;10754;51.106;7.164;2022-09-28T01:22:37;1.25;;;1.02;;
21192;SDS011;10754;51.106;7.164;2022-09-28T01:25:40;1.50;;;1.15;;
21192;SDS011;10754;51.106;7.164;2022-09-28T01:28:13;2.55;;;1.10;;
21192;SDS011;10754;51.106;7.164;2022-09-28T01:33:30;2.58;;;1.25;;
21192;SDS011;10754;51.106;7.164;2022-09-28T01:36:04;1.38;;;1.10;;
21192;SDS011;10754;51.106;7.164;2022-09-28T01:39:18;2.80;;;1.15;;
21192;SDS011;10754;51.106;7.164;2022-09-28T01:41:30;2.67;;;1.50;;
21192;SDS011;10754;51.106;7.164;2022-09-28T01:44:00;1.40;;;1.13;;
21192;SDS011;10754;51.106;7.164;2022-09-28T01:46:32;3.17;;;1.42;;
21192;SDS011;10754;51.106;7.164;2022-09-28T01:49:12;1.85;;;1.10;;
21192;SDS011;10754;51.106;7.164;2022-09-28T01:51:45;1.70;;;1.13;;
21192;SDS011;10754;51.106;7.164;2022-09-28T01:55:08;1.90;;;1.27;;
21192;SDS011;10754;51.106;7.164;2022-09-28T01:57:14;2.53;;;1.30;;
21192;SDS011;10754;51.106;7.164;2022-09-28T02:00:03;1.25;;;1.15;;
21192;SDS011;10754;51.106;7.164;2022-09-28T02:02:32;2.10;;;1.30;;
21192;SDS011;10754;51.106;7.164;2022-09-28T02:05:09;2.72;;;1.40;;
21192;SDS011;10754;51.106;7.164;2022-09-28T02:07:42;5.22;;;1.63;;
21192;SDS011;10754;51.106;7.164;2022-09-28T02:10:13;2.42;;;1.40;;
21192;SDS011;10754;51.106;7.164;2022-09-28T02:12:50;1.63;;;1.40;;
21192;SDS011;10754;51.106;7.164;2022-09-28T02:15:22;1.25;;;1.10;;
21192;SDS011;10754;51.106;7.164;2022-09-28T02:18:05;2.15;;;1.38;;
21192;SDS011;10754;51.106;7.164;2022-09-28T02:20:31;2.97;;;1.52;;
21192;SDS011;10754;51.106;7.164;2022-09-28T02:22:58;5.53;;;1.42;;
21192;SDS011;10754;51.106;7.164;2022-09-28T02:28:04;3.25;;;1.30;;
21192;SDS011;10754;51.106;7.164;2022-09-28T02:30:32;2.95;;;1.45;;
21192;SDS011;10754;51.106;7.164;2022-09-28T02:33:02;1.92;;;1.10;;
21192;SDS011;10754;51.106;7.164;2022-09-28T02:35:43;3.00;;;1.40;;
21192;SDS011;10754;51.106;7.164;2022-09-28T02:38:10;2.03;;;1.60;;
21192;SDS011;10754;51.106;7.164;2022-09-28T02:40:37;1.70;;;1.33;;
21192;SDS011;10754;51.106;7.164;2022-09-28T02:45:55;2.40;;;1.40;;
21192;SDS011;10754;51.106;7.164;2022-09-28T02:48:30;3.37;;;1.77;;
21192;SDS011;10754;51.106;7.164;2022-09-28T02:59:04;1.50;;;1.40;;
21192;SDS011;10754;51.106;7.164;2022-09-28T03:04:46;2.92;;;1.50;;
21192;SDS011;10754;51.106;7.164;2022-09-28T03:07:28;3.47;;;2.30;;
21192;SDS011;10754;51.106;7.164;2022-09-28T03:12:32;3.22;;;2.45;;
21192;SDS011;10754;51.106;7.164;2022-09-28T03:15:11;2.90;;;2.70;;
21192;SDS011;10754;51.106;7.164;2022-09-28T03:17:43;2.65;;;2.45;;
21192;SDS011;10754;51.106;7.164;2022-09-28T03:20:08;5.15;;;2.25;;
21192;SDS011;10754;51.106;7.164;2022-09-28T03:22:34;3.60;;;2.55;;
21192;SDS011;10754;51.106;7.164;2022-09-28T03:25:00;2.75;;;2.47;;
21192;SDS011;10754;51.106;7.164;2022-09-28T03:27:25;2.95;;;2.67;;
21192;SDS011;10754;51.106;7.164;2022-09-28T03:29:51;6.30;;;3.28;;
21192;SDS011;10754;51.106;7.164;2022-09-28T03:32:16;4.17;;;2.87;;
21192;SDS011;10754;51.106;7.164;2022-09-28T03:34:42;3.37;;;3.00;;
21192;SDS011;10754;51.106;7.164;2022-09-28T03:37:07;4.10;;;3.45;;
21192;SDS011;10754;51.106;7.164;2022-09-28T03:39:33;3.53;;;3.22;;
21192;SDS011;10754;51.106;7.164;2022-09-28T03:42:01;4.22;;;3.90;;
21192;SDS011;10754;51.106;7.164;2022-09-28T03:44:27;5.13;;;3.85;;
21192;SDS011;10754;51.106;7.164;2022-09-28T03:46:52;4.10;;;3.70;;
21192;SDS011;10754;51.106;7.164;2022-09-28T03:49:18;4.70;;;4.30;;
21192;SDS011;10754;51.106;7.164;2022-09-28T03:51:43;4.80;;;4.18;;
21192;SDS011;10754;51.106;7.164;2022-09-28T03:54:09;5.37;;;4.63;;
21192;SDS011;10754;51.106;7.164;2022-09-28T03:56:34;5.13;;;4.63;;
21192;SDS011;10754;51.106;7.164;2022-09-28T03:59:01;6.20;;;5.00;;
21192;SDS011;10754;51.106;7.164;2022-09-28T04:01:27;5.88;;;5.03;;
21192;SDS011;10754;51.106;7.164;2022-09-28T04:03:53;5.35;;;4.72;;
21192;SDS011;10754;51.106;7.164;2022-09-28T04:06:19;6.63;;;5.63;;
21192;SDS011;10754;51.106;7.164;2022-09-28T04:08:45;6.03;;;4.80;;
21192;SDS011;10754;51.106;7.164;2022-09-28T04:11:11;5.82;;;5.32;;
21192;SDS011;10754;51.106;7.164;2022-09-28T04:13:36;5.45;;;4.95;;
21192;SDS011;10754;51.106;7.164;2022-09-28T04:16:02;5.22;;;4.70;;
21192;SDS011;10754;51.106;7.164;2022-09-28T04:18:28;5.93;;;5.38;;
21192;SDS011;10754;51.106;7.164;2022-09-28T04:20:58;6.07;;;4.97;;
21192;SDS011;10754;51.106;7.164;2022-09-28T04:23:27;6.07;;;5.10;;
21192;SDS011;10754;51.106;7.164;2022-09-28T04:25:52;5.40;;;4.90;;
21192;SDS011;10754;51.106;7.164;2022-09-28T04:28:18;5.72;;;5.22;;
21192;SDS011;10754;51.106;7.164;2022-09-28T04:31:02;5.68;;;5.15;;
21192;SDS011;10754;51.106;7.164;2022-09-28T04:33:32;5.73;;;4.90;;
21192;SDS011;10754;51.106;7.164;2022-09-28T04:35:57;5.40;;;5.00;;
21192;SDS011;10754;51.106;7.164;2022-09-28T04:38:24;5.75;;;5.05;;
21192;SDS011;10754;51.106;7.164;2022-09-28T04:40:50;6.00;;;5.35;;
21192;SDS011;10754;51.106;7.164;2022-09-28T04:43:15;5.43;;;5.03;;
21192;SDS011;10754;51.106;7.164;2022-09-28T04:45:41;4.85;;;4.45;;
21192;SDS011;10754;51.106;7.164;2022-09-28T04:48:06;5.63;;;4.85;;
21192;SDS011;10754;51.106;7.164;2022-09-28T04:50:32;5.23;;;4.83;;
21192;SDS011;10754;51.106;7.164;2022-09-28T04:52:59;5.50;;;5.00;;
21192;SDS011;10754;51.106;7.164;2022-09-28T04:55:25;5.27;;;4.90;;
21192;SDS011;10754;51.106;7.164;2022-09-28T04:57:56;5.57;;;5.10;;
21192;SDS011;10754;51.106;7.164;2022-09-28T05:00:26;5.88;;;5.28;;
21192;SDS011;10754;51.106;7.164;2022-09-28T05:02:57;5.82;;;5.32;;
21192;SDS011;10754;51.106;7.164;2022-09-28T05:05:22;6.45;;;5.25;;
21192;SDS011;10754;51.106;7.164;2022-09-28T05:07:48;6.15;;;5.65;;
21192;SDS011;10754;51.106;7.164;2022-09-28T05:10:13;7.05;;;6.35;;
21192;SDS011;10754;51.106;7.164;2022-09-28T05:12:39;6.28;;;5.70;;
21192;SDS011;10754;51.106;7.164;2022-09-28T05:15:04;6.82;;;6.25;;
21192;SDS011;10754;51.106;7.164;2022-09-28T05:17:30;7.20;;;6.60;;
21192;SDS011;10754;51.106;7.164;2022-09-28T05:19:55;6.80;;;6.30;;
21192;SDS011;10754;51.106;7.164;2022-09-28T05:22:21;6.50;;;5.90;;
21192;SDS011;10754;51.106;7.164;2022-09-28T05:24:46;7.70;;;6.43;;
21192;SDS011;10754;51.106;7.164;2022-09-28T05:27:12;7.55;;;6.70;;
21192;SDS011;10754;51.106;7.164;2022-09-28T05:29:37;6.75;;;6.15;;
21192;SDS011;10754;51.106;7.164;2022-09-28T05:32:03;7.20;;;6.60;;
21192;SDS011;10754;51.106;7.164;2022-09-28T05:34:29;7.00;;;6.30;;
21192;SDS011;10754;51.106;7.164;2022-09-28T05:36:54;6.40;;;5.90;;
21192;SDS011;10754;51.106;7.164;2022-09-28T05:39:20;7.68;;;6.30;;
21192;SDS011;10754;51.106;7.164;2022-09-28T05:41:45;6.70;;;5.93;;
21192;SDS011;10754;51.106;7.164;2022-09-28T05:44:11;6.27;;;5.77;;
21192;SDS011;10754;51.106;7.164;2022-09-28T05:46:36;6.60;;;5.93;;
21192;SDS011;10754;51.106;7.164;2022-09-28T05:49:02;6.53;;;5.95;;
21192;SDS011;10754;51.106;7.164;2022-09-28T05:51:27;5.97;;;5.47;;
21192;SDS011;10754;51.106;7.164;2022-09-28T05:53:53;6.50;;;5.90;;
21192;SDS011;10754;51.106;7.164;2022-09-28T05:56:20;7.20;;;6.57;;
21192;SDS011;10754;51.106;7.164;2022-09-28T05:58:45;6.22;;;5.72;;
21192;SDS011;10754;51.106;7.164;2022-09-28T06:01:11;5.88;;;5.30;;
21192;SDS011;10754;51.106;7.164;2022-09-28T06:03:36;6.20;;;5.65;;
21192;SDS011;10754;51.106;7.164;2022-09-28T06:06:02;6.97;;;5.35;;
21192;SDS011;10754;51.106;7.164;2022-09-28T06:08:29;5.30;;;4.90;;
21192;SDS011;10754;51.106;7.164;2022-09-28T06:10:59;6.47;;;5.53;;
21192;SDS011;10754;51.106;7.164;2022-09-28T06:13:26;5.32;;;4.75;;
21192;SDS011;10754;51.106;7.164;2022-09-28T06:15:52;7.10;;;4.90;;
21192;SDS011;10754;51.106;7.164;2022-09-28T06:18:18;4.70;;;4.30;;
21192;SDS011;10754;51.106;7.164;2022-09-28T06:20:43;6.40;;;4.55;;
21192;SDS011;10754;51.106;7.164;2022-09-28T06:23:09;4.85;;;4.43;;
21192;SDS011;10754;51.106;7.164;2022-09-28T06:25:36;5.20;;;4.55;;
21192;SDS011;10754;51.106;7.164;2022-09-28T06:28:03;4.60;;;4.20;;
21192;SDS011;10754;51.106;7.164;2022-09-28T06:30:36;5.00;;;4.20;;
21192;SDS011;10754;51.106;7.164;2022-09-28T06:33:03;5.35;;;4.25;;
21192;SDS011;10754;51.106;7.164;2022-09-28T06:35:30;5.00;;;4.28;;
21192;SDS011;10754;51.106;7.164;2022-09-28T06:37:57;4.43;;;4.03;;
21192;SDS011;10754;51.106;7.164;2022-09-28T06:40:23;4.55;;;4.13;;
21192;SDS011;10754;51.106;7.164;2022-09-28T06:42:56;4.45;;;4.05;;
21192;SDS011;10754;51.106;7.164;2022-09-28T06:45:37;3.75;;;3.45;;
21192;SDS011;10754;51.106;7.164;2022-09-28T06:48:02;5.00;;;3.83;;
21192;SDS011;10754;51.106;7.164;2022-09-28T06:50:30;4.50;;;3.70;;
21192;SDS011;10754;51.106;7.164;2022-09-28T06:52:58;4.20;;;3.80;;
21192;SDS011;10754;51.106;7.164;2022-09-28T06:55:24;3.88;;;3.38;;
21192;SDS011;10754;51.106;7.164;2022-09-28T06:58:01;4.97;;;3.38;;
21192;SDS011;10754;51.106;7.164;2022-09-28T07:00:28;3.60;;;3.30;;
21192;SDS011;10754;51.106;7.164;2022-09-28T07:02:57;3.47;;;3.17;;
21192;SDS011;10754;51.106;7.164;2022-09-28T07:05:24;3.80;;;3.40;;
21192;SDS011;10754;51.106;7.164;2022-09-28T07:07:54;3.85;;;3.10;;
21192;SDS011;10754;51.106;7.164;2022-09-28T07:10:24;3.33;;;3.03;;
21192;SDS011;10754;51.106;7.164;2022-09-28T07:12:51;3.05;;;2.65;;
21192;SDS011;10754;51.106;7.164;2022-09-28T07:15:18;4.75;;;3.25;;
21192;SDS011;10754;51.106;7.164;2022-09-28T07:17:44;3.08;;;2.78;;
21192;SDS011;10754;51.106;7.164;2022-09-28T07:20:10;2.80;;;2.40;;
21192;SDS011;10754;51.106;7.164;2022-09-28T07:22:35;4.55;;;2.65;;
21192;SDS011;10754;51.106;7.164;2022-09-28T07:25:01;3.03;;;2.83;;
21192;SDS011;10754;51.106;7.164;2022-09-28T07:27:27;3.78;;;3.17;;
21192;SDS011;10754;51.106;7.164;2022-09-28T07:29:52;2.92;;;2.72;;
21192;SDS011;10754;51.106;7.164;2022-09-28T07:32:19;3.15;;;2.92;;
21192;SDS011;10754;51.106;7.164;2022-09-28T07:34:45;3.33;;;2.50;;
21192;SDS011;10754;51.106;7.164;2022-09-28T07:37:12;4.47;;;2.90;;
21192;SDS011;10754;51.106;7.164;2022-09-28T07:39:39;2.80;;;2.40;;
21192;SDS011;10754;51.106;7.164;2022-09-28T07:42:23;4.05;;;2.55;;
21192;SDS011;10754;51.106;7.164;2022-09-28T07:44:53;3.75;;;2.70;;
21192;SDS011;10754;51.106;7.164;2022-09-28T07:47:20;3.00;;;2.70;;
21192;SDS011;10754;51.106;7.164;2022-09-28T07:49:51;2.60;;;2.40;;
21192;SDS011;10754;51.106;7.164;2022-09-28T07:52:25;4.75;;;2.78;;
21192;SDS011;10754;51.106;7.164;2022-09-28T07:54:52;2.90;;;2.33;;
21192;SDS011;10754;51.106;7.164;2022-09-28T07:57:19;5.25;;;2.70;;
21192;SDS011;10754;51.106;7.164;2022-09-28T07:59:45;2.80;;;2.40;;
21192;SDS011;10754;51.106;7.164;2022-09-28T08:02:12;2.92;;;2.60;;
21192;SDS011;10754;51.106;7.164;2022-09-28T08:04:37;2.78;;;2.47;;
21192;SDS011;10754;51.106;7.164;2022-09-28T08:07:10;3.25;;;2.63;;
21192;SDS011;10754;51.106;7.164;2022-09-28T08:09:36;2.60;;;2.40;;
21192;SDS011;10754;51.106;7.164;2022-09-28T08:12:02;3.72;;;2.40;;
21192;SDS011;10754;51.106;7.164;2022-09-28T08:14:29;3.53;;;2.30;;
21192;SDS011;10754;51.106;7.164;2022-09-28T08:16:58;3.28;;;2.33;;
21192;SDS011;10754;51.106;7.164;2022-09-28T08:19:27;2.30;;;2.10;;
21192;SDS011;10754;51.106;7.164;2022-09-28T08:22:11;2.83;;;2.17;;
21192;SDS011;10754;51.106;7.164;2022-09-28T08:24:37;2.78;;;2.00;;
21192;SDS011;10754;51.106;7.164;2022-09-28T08:27:03;2.75;;;2.53;;
21192;SDS011;10754;51.106;7.164;2022-09-28T08:29:28;2.50;;;2.22;;
21192;SDS011;10754;51.106;7.164;2022-09-28T08:31:55;2.63;;;2.10;;
21192;SDS011;10754;51.106;7.164;2022-09-28T08:34:22;2.47;;;2.20;;
21192;SDS011;10754;51.106;7.164;2022-09-28T08:36:48;3.38;;;2.45;;
21192;SDS011;10754;51.106;7.164;2022-09-28T08:39:14;3.83;;;2.20;;
21192;SDS011;10754;51.106;7.164;2022-09-28T08:41:44;6.20;;;2.15;;
21192;SDS011;10754;51.106;7.164;2022-09-28T08:44:21;2.85;;;1.90;;
21192;SDS011;10754;51.106;7.164;2022-09-28T08:46:50;3.10;;;2.20;;
21192;SDS011;10754;51.106;7.164;2022-09-28T08:55:06;2.53;;;1.90;;
21192;SDS011;10754;51.106;7.164;2022-09-28T09:00:28;4.72;;;2.00;;
21192;SDS011;10754;51.106;7.164;2022-09-28T09:02:58;3.38;;;1.98;;
21192;SDS011;10754;51.106;7.164;2022-09-28T09:05:42;2.28;;;2.08;;
21192;SDS011;10754;51.106;7.164;2022-09-28T09:11:09;3.47;;;2.00;;
21192;SDS011;10754;51.106;7.164;2022-09-28T09:13:42;5.03;;;2.38;;
21192;SDS011;10754;51.106;7.164;2022-09-28T09:16:37;3.30;;;1.92;;
21192;SDS011;10754;51.106;7.164;2022-09-28T09:19:33;3.50;;;2.38;;
21192;SDS011;10754;51.106;7.164;2022-09-28T09:24:54;5.65;;;2.75;;
21192;SDS011;10754;51.106;7.164;2022-09-28T09:30:07;3.15;;;2.25;;
21192;SDS011;10754;51.106;7.164;2022-09-28T09:35:43;2.55;;;2.10;;
21192;SDS011;10754;51.106;7.164;2022-09-28T09:41:35;3.72;;;1.83;;
21192;SDS011;10754;51.106;7.164;2022-09-28T09:47:11;2.15;;;1.88;;
21192;SDS011;10754;51.106;7.164;2022-09-28T09:49:44;2.70;;;2.10;;
21192;SDS011;10754;51.106;7.164;2022-09-28T09:52:25;3.72;;;1.50;;
21192;SDS011;10754;51.106;7.164;2022-09-28T10:00:34;2.63;;;1.60;;
21192;SDS011;10754;51.106;7.164;2022-09-28T10:03:03;2.17;;;1.38;;
21192;SDS011;10754;51.106;7.164;2022-09-28T10:05:29;2.95;;;1.63;;
21192;SDS011;10754;51.106;7.164;2022-09-28T10:08:03;1.73;;;1.38;;
21192;SDS011;10754;51.106;7.164;2022-09-28T10:10:49;2.25;;;1.17;;
21192;SDS011;10754;51.106;7.164;2022-09-28T10:13:17;2.38;;;1.48;;
21192;SDS011;10754;51.106;7.164;2022-09-28T10:15:42;2.65;;;1.83;;
21192;SDS011;10754;51.106;7.164;2022-09-28T10:18:11;2.95;;;1.38;;
21192;SDS011;10754;51.106;7.164;2022-09-28T10:20:40;5.07;;;1.63;;
21192;SDS011;10754;51.106;7.164;2022-09-28T10:23:19;4.72;;;1.63;;
21192;SDS011;10754;51.106;7.164;2022-09-28T10:25:49;4.22;;;1.80;;
21192;SDS011;10754;51.106;7.164;2022-09-28T10:28:18;3.40;;;1.23;;
21192;SDS011;10754;51.106;7.164;2022-09-28T10:30:51;3.70;;;1.60;;
21192;SDS011;10754;51.106;7.164;2022-09-28T10:33:28;1.30;;;0.95;;
21192;SDS011;10754;51.106;7.164;2022-09-28T10:36:00;2.78;;;1.00;;
21192;SDS011;10754;51.106;7.164;2022-09-28T10:38:29;1.67;;;1.08;;
21192;SDS011;10754;51.106;7.164;2022-09-28T10:40:59;1.73;;;1.05;;
21192;SDS011;10754;51.106;7.164;2022-09-28T10:43:34;2.22;;;1.40;;
21192;SDS011;10754;51.106;7.164;2022-09-28T10:46:09;1.60;;;0.80;;
21192;SDS011;10754;51.106;7.164;2022-09-28T10:48:44;3.38;;;1.52;;
21192;SDS011;10754;51.106;7.164;2022-09-28T10:51:11;2.80;;;1.00;;
21192;SDS011;10754;51.106;7.164;2022-09-28T10:53:37;1.50;;;0.90;;
21192;SDS011;10754;51.106;7.164;2022-09-28T10:56:04;1.83;;;1.25;;
21192;SDS011;10754;51.106;7.164;2022-09-28T10:58:35;1.70;;;0.95;;
21192;SDS011;10754;51.106;7.164;2022-09-28T11:01:05;2.58;;;1.00;;
21192;SDS011;10754;51.106;7.164;2022-09-28T11:03:37;2.25;;;1.20;;
21192;SDS011;10754;51.106;7.164;2022-09-28T11:06:37;2.55;;;1.25;;
21192;SDS011;10754;51.106;7.164;2022-09-28T11:09:04;1.55;;;1.02;;
21192;SDS011;10754;51.106;7.164;2022-09-28T11:11:46;1.15;;;0.90;;
21192;SDS011;10754;51.106;7.164;2022-09-28T11:14:26;2.65;;;1.10;;
21192;SDS011;10754;51.106;7.164;2022-09-28T11:17:16;1.15;;;0.60;;
21192;SDS011;10754;51.106;7.164;2022-09-28T11:19:48;1.13;;;0.80;;
21192;SDS011;10754;51.106;7.164;2022-09-28T11:27:40;2.97;;;0.70;;
21192;SDS011;10754;51.106;7.164;2022-09-28T11:33:15;1.27;;;0.60;;
21192;SDS011;10754;51.106;7.164;2022-09-28T11:38:43;2.92;;;0.90;;
21192;SDS011;10754;51.106;7.164;2022-09-28T11:43:55;3.97;;;0.90;;
21192;SDS011;10754;51.106;7.164;2022-09-28T11:47:07;1.33;;;0.80;;
21192;SDS011;10754;51.106;7.164;2022-09-28T11:52:22;1.50;;;0.65;;
21192;SDS011;10754;51.106;7.164;2022-09-28T11:55:05;0.93;;;0.60;;
21192;SDS011;10754;51.106;7.164;2022-09-28T11:57:39;1.52;;;0.80;;
21192;SDS011;10754;51.106;7.164;2022-09-28T12:00:16;1.58;;;0.70;;
21192;SDS011;10754;51.106;7.164;2022-09-28T12:02:57;4.20;;;1.25;;
21192;SDS011;10754;51.106;7.164;2022-09-28T12:05:30;3.63;;;0.70;;
21192;SDS011;10754;51.106;7.164;2022-09-28T12:08:08;0.85;;;0.80;;
21192;SDS011;10754;51.106;7.164;2022-09-28T12:10:45;1.08;;;0.77;;
21192;SDS011;10754;51.106;7.164;2022-09-28T12:13:28;1.45;;;0.70;;
21192;SDS011;10754;51.106;7.164;2022-09-28T12:21:36;1.65;;;0.77;;
21192;SDS011;10754;51.106;7.164;2022-09-28T12:24:05;1.77;;;0.80;;
21192;SDS011;10754;51.106;7.164;2022-09-28T12:26:51;1.52;;;0.80;;
21192;SDS011;10754;51.106;7.164;2022-09-28T12:29:22;1.63;;;0.93;;
21192;SDS011;10754;51.106;7.164;2022-09-28T12:34:27;2.92;;;1.00;;
21192;SDS011;10754;51.106;7.164;2022-09-28T12:42:21;2.58;;;0.75;;
21192;SDS011;10754;51.106;7.164;2022-09-28T12:50:34;2.00;;;0.77;;
21192;SDS011;10754;51.106;7.164;2022-09-28T13:04:05;1.92;;;0.50;;
21192;SDS011;10754;51.106;7.164;2022-09-28T13:09:40;1.75;;;0.70;;
21192;SDS011;10754;51.106;7.164;2022-09-28T13:12:39;1.10;;;0.75;;
21192;SDS011;10754;51.106;7.164;2022-09-28T13:15:32;2.05;;;1.02;;
21192;SDS011;10754;51.106;7.164;2022-09-28T13:23:52;1.52;;;0.70;;
21192;SDS011;10754;51.106;7.164;2022-09-28T13:26:23;1.33;;;0.82;;
21192;SDS011;10754;51.106;7.164;2022-09-28T13:28:53;0.85;;;0.63;;
21192;SDS011;10754;51.106;7.164;2022-09-28T13:31:26;3.10;;;0.82;;
21192;SDS011;10754;51.106;7.164;2022-09-28T13:33:56;1.85;;;0.88;;
21192;SDS011;10754;51.106;7.164;2022-09-28T13:38:55;2.35;;;0.60;;
21192;SDS011;10754;51.106;7.164;2022-09-28T13:41:32;5.22;;;0.90;;
21192;SDS011;10754;51.106;7.164;2022-09-28T13:49:26;3.03;;;0.60;;
21192;SDS011;10754;51.106;7.164;2022-09-28T13:54:51;1.55;;;0.50;;
21192;SDS011;10754;51.106;7.164;2022-09-28T13:57:25;2.30;;;0.63;;
21192;SDS011;10754;51.106;7.164;2022-09-28T14:00:02;1.23;;;0.32;;
21192;SDS011;10754;51.106;7.164;2022-09-28T14:02:55;0.32;;;0.20;;
21192;SDS011;10754;51.106;7.164;2022-09-28T14:08:28;2.08;;;0.40;;
21192;SDS011;10754;51.106;7.164;2022-09-28T14:14:05;2.70;;;0.40;;
21192;SDS011;10754;51.106;7.164;2022-09-28T14:16:58;1.05;;;0.60;;
21192;SDS011;10754;51.106;7.164;2022-09-28T14:19:48;1.20;;;0.50;;
21192;SDS011;10754;51.106;7.164;2022-09-28T14:22:33;2.28;;;0.52;;
21192;SDS011;10754;51.106;7.164;2022-09-28T14:25:23;1.98;;;0.40;;
21192;SDS011;10754;51.106;7.164;2022-09-28T14:27:56;1.73;;;0.50;;
21192;SDS011;10754;51.106;7.164;2022-09-28T14:33:01;2.47;;;0.38;;
21192;SDS011;10754;51.106;7.164;2022-09-28T14:35:47;1.67;;;0.50;;
21192;SDS011;10754;51.106;7.164;2022-09-28T14:38:15;2.03;;;0.55;;
21192;SDS011;10754;51.106;7.164;2022-09-28T14:41:03;1.67;;;0.50;;
21192;SDS011;10754;51.106;7.164;2022-09-28T14:48:53;1.70;;;0.50;;
21192;SDS011;10754;51.106;7.164;2022-09-28T14:53:50;0.82;;;0.43;;
21192;SDS011;10754;51.106;7.164;2022-09-28T14:59:37;0.90;;;0.30;;
21192;SDS011;10754;51.106;7.164;2022-09-28T15:02:10;2.33;;;0.40;;
21192;SDS011;10754;51.106;7.164;2022-09-28T15:04:56;1.98;;;0.60;;
21192;SDS011;10754;51.106;7.164;2022-09-28T15:07:44;1.95;;;0.73;;
21192;SDS011;10754;51.106;7.164;2022-09-28T15:10:21;1.30;;;0.52;;
21192;SDS011;10754;51.106;7.164;2022-09-28T15:12:47;3.65;;;0.52;;
21192;SDS011;10754;51.106;7.164;2022-09-28T15:15:22;0.70;;;0.55;;
21192;SDS011;10754;51.106;7.164;2022-09-28T15:20:46;2.25;;;0.70;;
21192;SDS011;10754;51.106;7.164;2022-09-28T15:23:24;1.45;;;0.73;;
21192;SDS011;10754;51.106;7.164;2022-09-28T15:25:51;3.15;;;0.60;;
21192;SDS011;10754;51.106;7.164;2022-09-28T15:28:18;3.20;;;0.40;;
21192;SDS011;10754;51.106;7.164;2022-09-28T15:30:47;1.75;;;0.40;;
21192;SDS011;10754;51.106;7.164;2022-09-28T15:33:21;1.48;;;0.50;;
21192;SDS011;10754;51.106;7.164;2022-09-28T15:36:07;2.45;;;0.40;;
21192;SDS011;10754;51.106;7.164;2022-09-28T15:38:40;0.90;;;0.38;;
21192;SDS011;10754;51.106;7.164;2022-09-28T15:41:06;1.60;;;0.32;;
21192;SDS011;10754;51.106;7.164;2022-09-28T15:43:34;1.58;;;0.40;;
21192;SDS011;10754;51.106;7.164;2022-09-28T15:46:17;2.75;;;0.50;;
21192;SDS011;10754;51.106;7.164;2022-09-28T15:48:51;0.82;;;0.38;;
21192;SDS011;10754;51.106;7.164;2022-09-28T15:51:19;0.40;;;0.20;;
21192;SDS011;10754;51.106;7.164;2022-09-28T15:53:53;0.52;;;0.22;;
21192;SDS011;10754;51.106;7.164;2022-09-28T15:56:48;0.63;;;0.30;;
21192;SDS011;10754;51.106;7.164;2022-09-28T16:01:50;1.75;;;0.40;;
21192;SDS011;10754;51.106;7.164;2022-09-28T16:04:47;1.45;;;0.45;;
21192;SDS011;10754;51.106;7.164;2022-09-28T16:10:02;2.55;;;0.63;;
21192;SDS011;10754;51.106;7.164;2022-09-28T16:12:50;1.20;;;0.40;;
21192;SDS011;10754;51.106;7.164;2022-09-28T16:15:26;1.63;;;0.40;;
21192;SDS011;10754;51.106;7.164;2022-09-28T16:17:58;0.50;;;0.30;;
21192;SDS011;10754;51.106;7.164;2022-09-28T16:20:34;8.63;;;1.95;;
21192;SDS011;10754;51.106;7.164;2022-09-28T16:23:15;14.52;;;3.40;;
21192;SDS011;10754;51.106;7.164;2022-09-28T16:25:55;9.95;;;2.40;;
21192;SDS011;10754;51.106;7.164;2022-09-28T16:33:50;3.25;;;0.50;;
21192;SDS011;10754;51.106;7.164;2022-09-28T16:36:18;2.20;;;0.50;;
21192;SDS011;10754;51.106;7.164;2022-09-28T16:38:46;2.08;;;0.60;;
21192;SDS011;10754;51.106;7.164;2022-09-28T16:41:16;3.55;;;0.80;;
21192;SDS011;10754;51.106;7.164;2022-09-28T16:43:44;0.60;;;0.40;;
21192;SDS011;10754;51.106;7.164;2022-09-28T16:46:12;0.88;;;0.50;;
21192;SDS011;10754;51.106;7.164;2022-09-28T16:48:43;1.35;;;0.60;;
21192;SDS011;10754;51.106;7.164;2022-09-28T16:51:17;0.30;;;0.30;;
21192;SDS011;10754;51.106;7.164;2022-09-28T16:53:44;0.38;;;0.30;;
21192;SDS011;10754;51.106;7.164;2022-09-28T16:56:29;1.23;;;0.38;;
21192;SDS011;10754;51.106;7.164;2022-09-28T16:58:56;1.63;;;0.60;;
21192;SDS011;10754;51.106;7.164;2022-09-28T17:01:22;1.90;;;0.70;;
21192;SDS011;10754;51.106;7.164;2022-09-28T17:03:48;2.15;;;1.02;;
21192;SDS011;10754;51.106;7.164;2022-09-28T17:06:17;0.93;;;0.70;;
21192;SDS011;10754;51.106;7.164;2022-09-28T17:08:44;2.45;;;2.20;;
21192;SDS011;10754;51.106;7.164;2022-09-28T17:11:14;2.60;;;1.90;;
21192;SDS011;10754;51.106;7.164;2022-09-28T17:13:41;4.53;;;1.77;;
21192;SDS011;10754;51.106;7.164;2022-09-28T17:16:09;1.77;;;1.08;;
21192;SDS011;10754;51.106;7.164;2022-09-28T17:18:37;2.53;;;1.38;;
21192;SDS011;10754;51.106;7.164;2022-09-28T17:21:05;2.40;;;1.63;;
21192;SDS011;10754;51.106;7.164;2022-09-28T17:23:33;2.22;;;1.25;;
21192;SDS011;10754;51.106;7.164;2022-09-28T17:25:59;2.95;;;1.85;;
21192;SDS011;10754;51.106;7.164;2022-09-28T17:28:35;4.85;;;2.00;;
21192;SDS011;10754;51.106;7.164;2022-09-28T17:31:01;2.75;;;1.92;;
21192;SDS011;10754;51.106;7.164;2022-09-28T17:33:28;1.83;;;1.48;;
21192;SDS011;10754;51.106;7.164;2022-09-28T17:36:03;4.88;;;4.13;;
21192;SDS011;10754;51.106;7.164;2022-09-28T17:38:29;3.78;;;3.35;;
21192;SDS011;10754;51.106;7.164;2022-09-28T17:40:54;3.55;;;3.25;;
21192;SDS011;10754;51.106;7.164;2022-09-28T17:43:20;4.85;;;3.20;;
21192;SDS011;10754;51.106;7.164;2022-09-28T17:45:46;3.55;;;3.22;;
21192;SDS011;10754;51.106;7.164;2022-09-28T17:48:13;3.10;;;2.78;;
21192;SDS011;10754;51.106;7.164;2022-09-28T17:50:41;3.42;;;1.95;;
21192;SDS011;10754;51.106;7.164;2022-09-28T17:53:07;1.50;;;1.38;;
21192;SDS011;10754;51.106;7.164;2022-09-28T17:55:34;3.50;;;1.67;;